createdAt,value
2022-11-30T00:01:23.438Z,17.40
2022-11-30T00:03:55.415Z,17.57
2022-11-30T00:06:23.594Z,18.40
2022-11-30T00:08:58.282Z,16.40
2022-11-30T00:11:27.475Z,15.80
2022-11-30T00:13:55.015Z,18.47
2022-11-30T00:16:22.647Z,18.40
2022-11-30T00:18:50.181Z,18.67
2022-11-30T00:21:17.519Z,17.67
2022-11-30T00:23:46.328Z,17.33
2022-11-30T00:26:16.281Z,17.83
2022-11-30T00:28:45.771Z,18.33
2022-11-30T00:31:15.039Z,18.50
2022-11-30T00:33:42.630Z,17.67
2022-11-30T00:36:22.192Z,17.07
2022-11-30T00:38:51.047Z,17.70
2022-11-30T00:41:19.626Z,17.60
2022-11-30T00:43:47.158Z,15.80
2022-11-30T00:46:14.829Z,15.60
2022-11-30T00:48:42.441Z,15.20
2022-11-30T00:51:11.162Z,16.87
2022-11-30T00:53:39.699Z,17.23
2022-11-30T00:56:08.009Z,16.27
2022-11-30T00:58:35.361Z,18.60
2022-11-30T01:01:02.970Z,17.37
2022-11-30T01:03:30.220Z,16.80
2022-11-30T01:06:05.869Z,16.80
2022-11-30T01:08:33.710Z,17.50
2022-11-30T01:11:16.197Z,20.87
2022-11-30T01:13:43.626Z,20.07
2022-11-30T01:16:17.048Z,20.07
2022-11-30T01:18:45.142Z,18.20
2022-11-30T01:21:16.407Z,21.37
2022-11-30T01:23:44.237Z,22.40
2022-11-30T01:26:12.125Z,21.00
2022-11-30T01:28:40.998Z,22.30
2022-11-30T01:31:10.925Z,23.17
2022-11-30T01:33:38.693Z,23.60
2022-11-30T01:36:14.792Z,22.77
2022-11-30T01:38:44.621Z,23.20
2022-11-30T01:41:15.746Z,23.33
2022-11-30T01:43:46.404Z,22.90
2022-11-30T01:46:31.681Z,22.97
2022-11-30T01:49:12.764Z,22.17
2022-11-30T01:51:40.013Z,21.33
2022-11-30T01:54:10.696Z,22.43
2022-11-30T01:56:51.673Z,21.73
2022-11-30T01:59:20.772Z,21.43
2022-11-30T02:01:48.295Z,21.47
2022-11-30T02:04:33.128Z,21.60
2022-11-30T02:07:03.126Z,21.03
2022-11-30T02:09:31.876Z,21.53
2022-11-30T02:11:59.963Z,21.30
2022-11-30T02:14:31.600Z,21.57
2022-11-30T02:17:07.732Z,19.80
2022-11-30T02:20:10.255Z,19.83
2022-11-30T02:22:49.168Z,18.70
2022-11-30T02:25:40.883Z,19.63
2022-11-30T02:28:24.683Z,19.77
2022-11-30T02:30:53.691Z,18.73
2022-11-30T02:33:25.579Z,19.87
2022-11-30T02:35:55.664Z,21.70
2022-11-30T02:38:25.484Z,19.30
2022-11-30T02:40:53.301Z,20.50
2022-11-30T02:43:23.188Z,21.73
2022-11-30T02:46:08.819Z,19.97
2022-11-30T02:48:44.021Z,18.90
2022-11-30T02:51:14.566Z,17.63
2022-11-30T02:53:42.268Z,17.77
2022-11-30T02:56:09.487Z,17.43
2022-11-30T02:58:36.849Z,17.40
2022-11-30T03:01:04.215Z,18.50
2022-11-30T03:03:31.521Z,19.30
2022-11-30T03:05:58.713Z,20.27
2022-11-30T03:08:25.914Z,21.17
2022-11-30T03:10:53.095Z,21.10
2022-11-30T03:13:20.389Z,22.10
2022-11-30T03:15:48.093Z,22.67
2022-11-30T03:18:15.391Z,22.03
2022-11-30T03:20:42.908Z,23.87
2022-11-30T03:23:10.645Z,21.93
2022-11-30T03:25:37.853Z,21.57
2022-11-30T03:28:05.223Z,21.80
2022-11-30T03:30:32.457Z,20.47
2022-11-30T03:32:59.684Z,20.67
2022-11-30T03:35:26.892Z,20.70
2022-11-30T03:37:54.119Z,17.57
2022-11-30T03:40:21.384Z,19.97
2022-11-30T03:42:48.628Z,18.40
2022-11-30T03:45:15.979Z,20.20
2022-11-30T03:47:43.895Z,17.70
2022-11-30T03:50:11.348Z,19.10
2022-11-30T03:52:38.559Z,20.37
2022-11-30T03:55:06.333Z,18.33
2022-11-30T03:57:33.606Z,20.00
2022-11-30T04:00:00.831Z,19.07
2022-11-30T04:02:28.216Z,17.20
2022-11-30T04:04:55.467Z,17.90
2022-11-30T04:07:22.956Z,17.43
2022-11-30T04:09:50.174Z,17.57
2022-11-30T04:12:17.369Z,18.30
2022-11-30T04:14:44.792Z,17.93
2022-11-30T04:17:12.311Z,17.10
2022-11-30T04:19:39.548Z,18.30
2022-11-30T04:22:06.728Z,17.57
2022-11-30T04:24:33.983Z,16.40
2022-11-30T04:27:01.226Z,16.17
2022-11-30T04:29:28.524Z,16.13
2022-11-30T04:31:55.771Z,15.90
2022-11-30T04:34:23.308Z,16.67
2022-11-30T04:36:50.576Z,18.20
2022-11-30T04:39:17.802Z,17.97
2022-11-30T04:41:45.059Z,17.23
2022-11-30T04:44:12.344Z,18.53
2022-11-30T04:46:39.612Z,18.30
2022-11-30T04:49:06.829Z,17.70
2022-11-30T04:51:34.071Z,16.90
2022-11-30T04:54:01.411Z,16.77
2022-11-30T04:56:28.641Z,16.70
2022-11-30T04:58:55.873Z,17.00
2022-11-30T05:01:23.057Z,17.50
2022-11-30T05:03:50.238Z,16.00
2022-11-30T05:06:17.534Z,16.20
2022-11-30T05:08:44.821Z,17.87
2022-11-30T05:11:12.008Z,16.00
2022-11-30T05:13:39.224Z,16.60
2022-11-30T05:16:06.702Z,16.80
2022-11-30T05:18:34.015Z,15.43
2022-11-30T05:21:01.525Z,15.60
2022-11-30T05:23:28.999Z,18.00
2022-11-30T05:25:56.297Z,15.83
2022-11-30T05:28:23.473Z,14.20
2022-11-30T05:30:50.725Z,15.07
2022-11-30T05:33:17.907Z,14.63
2022-11-30T05:35:45.248Z,14.37
2022-11-30T05:38:12.592Z,13.93
2022-11-30T05:40:39.767Z,13.40
2022-11-30T05:43:07.189Z,14.70
2022-11-30T05:45:34.431Z,15.23
2022-11-30T05:48:01.682Z,15.10
2022-11-30T05:50:28.896Z,16.27
2022-11-30T05:52:56.687Z,15.60
2022-11-30T05:55:24.807Z,15.47
2022-11-30T05:57:52.284Z,14.77
2022-11-30T06:00:20.252Z,14.83
2022-11-30T06:02:47.983Z,16.70
2022-11-30T06:05:15.364Z,14.43
2022-11-30T06:07:42.653Z,14.53
2022-11-30T06:10:10.463Z,15.70
2022-11-30T06:12:37.729Z,16.87
2022-11-30T06:15:05.509Z,16.60
2022-11-30T06:17:32.806Z,16.73
2022-11-30T06:20:00.029Z,16.67
2022-11-30T06:22:27.269Z,17.57
2022-11-30T06:24:54.543Z,15.70
2022-11-30T06:27:21.844Z,17.07
2022-11-30T06:29:49.053Z,17.40
2022-11-30T06:32:16.299Z,17.53
2022-11-30T06:34:43.527Z,18.87
2022-11-30T06:37:10.816Z,18.50
2022-11-30T06:40:04.968Z,17.90
2022-11-30T06:42:25.261Z,17.20
2022-11-30T06:44:52.510Z,18.70
2022-11-30T06:47:19.733Z,15.97
2022-11-30T06:49:46.917Z,16.33
2022-11-30T06:52:14.249Z,17.90
2022-11-30T06:54:41.431Z,18.23
2022-11-30T06:57:08.728Z,17.27
2022-11-30T06:59:42.362Z,15.67
2022-11-30T07:02:18.944Z,16.43
2022-11-30T07:04:47.217Z,16.80
2022-11-30T07:07:14.958Z,16.73
2022-11-30T07:09:42.303Z,19.30
2022-11-30T07:12:09.796Z,18.77
2022-11-30T07:14:37.041Z,18.80
2022-11-30T07:17:05.858Z,19.83
2022-11-30T07:19:36.323Z,19.30
2022-11-30T07:22:03.569Z,19.30
2022-11-30T07:24:49.485Z,18.80
2022-11-30T07:27:16.949Z,19.27
2022-11-30T07:29:44.296Z,20.40
2022-11-30T07:32:11.579Z,19.40
2022-11-30T07:34:38.920Z,19.40
2022-11-30T07:37:06.186Z,20.03
2022-11-30T07:39:33.354Z,19.13
2022-11-30T07:42:00.664Z,21.33
2022-11-30T07:44:28.033Z,21.93
2022-11-30T07:46:55.195Z,20.47
2022-11-30T07:49:22.453Z,20.60
2022-11-30T07:51:49.691Z,20.33
2022-11-30T07:54:16.914Z,19.60
2022-11-30T07:56:44.110Z,20.10
2022-11-30T07:59:11.316Z,18.87
2022-11-30T08:01:38.662Z,19.53
2022-11-30T08:04:06.146Z,20.13
2022-11-30T08:06:33.622Z,19.17
2022-11-30T08:09:03.980Z,21.40
2022-11-30T08:11:33.956Z,23.13
2022-11-30T08:14:02.545Z,21.67
2022-11-30T08:16:31.298Z,21.53
2022-11-30T08:18:59.077Z,22.90
2022-11-30T08:21:26.447Z,21.07
2022-11-30T08:23:56.601Z,21.20
2022-11-30T08:26:26.756Z,21.43
2022-11-30T08:28:54.993Z,20.63
2022-11-30T08:31:34.838Z,19.00
2022-11-30T08:34:05.134Z,20.00
2022-11-30T08:36:32.474Z,21.20
2022-11-30T08:39:00.978Z,19.40
2022-11-30T08:41:28.816Z,19.20
2022-11-30T08:43:56.623Z,20.83
2022-11-30T08:46:50.185Z,20.17
2022-11-30T08:49:21.450Z,18.50
2022-11-30T08:52:16.343Z,17.97
2022-11-30T08:54:39.599Z,17.73
2022-11-30T08:57:09.514Z,16.80
2022-11-30T08:59:36.930Z,17.40
2022-11-30T09:02:04.259Z,18.70
2022-11-30T09:04:31.524Z,15.90
2022-11-30T09:06:59.600Z,17.00
2022-11-30T09:09:27.116Z,17.33
2022-11-30T09:11:54.358Z,18.20
2022-11-30T09:14:21.603Z,16.10
2022-11-30T09:16:48.861Z,17.40
2022-11-30T09:19:16.093Z,17.07
2022-11-30T09:21:50.939Z,17.27
2022-11-30T09:24:19.508Z,16.50
2022-11-30T09:26:47.193Z,16.20
2022-11-30T09:29:14.434Z,15.33
2022-11-30T09:31:41.687Z,14.13
2022-11-30T09:34:11.974Z,15.20
2022-11-30T09:36:39.358Z,14.27
2022-11-30T09:39:06.935Z,16.90
2022-11-30T09:41:43.512Z,16.50
2022-11-30T09:44:58.645Z,15.80
2022-11-30T09:47:37.873Z,16.77
2022-11-30T09:50:11.043Z,18.23
2022-11-30T09:52:43.596Z,17.63
2022-11-30T09:55:15.341Z,17.93
2022-11-30T09:57:50.751Z,18.90
2022-11-30T10:00:19.505Z,17.97
2022-11-30T10:02:48.552Z,18.70
2022-11-30T10:05:19.644Z,17.70
2022-11-30T10:07:52.913Z,16.90
2022-11-30T10:10:41.724Z,17.30
2022-11-30T10:13:46.421Z,15.50
2022-11-30T10:16:22.338Z,14.63
2022-11-30T10:19:12.845Z,14.90
2022-11-30T10:22:11.488Z,14.30
2022-11-30T10:25:33.283Z,14.40
2022-11-30T10:28:38.498Z,14.27
2022-11-30T10:30:56.013Z,15.87
2022-11-30T10:33:38.186Z,15.87
2022-11-30T10:36:38.104Z,15.47
2022-11-30T10:39:14.544Z,15.63
2022-11-30T10:42:04.308Z,15.10
2022-11-30T10:44:39.577Z,14.67
2022-11-30T10:47:22.755Z,15.10
2022-11-30T10:49:51.276Z,11.47
2022-11-30T10:52:57.157Z,13.60
2022-11-30T10:55:27.220Z,10.40
2022-11-30T10:58:18.892Z,9.33
2022-11-30T11:01:13.448Z,10.93
2022-11-30T11:03:40.749Z,10.23
2022-11-30T11:06:24.582Z,10.73
2022-11-30T11:08:51.820Z,10.80
2022-11-30T11:11:39.101Z,10.90
2022-11-30T11:14:19.038Z,14.60
2022-11-30T11:17:07.113Z,14.17
2022-11-30T11:19:41.937Z,12.57
2022-11-30T11:22:24.003Z,13.90
2022-11-30T11:24:56.102Z,13.83
2022-11-30T11:27:30.753Z,14.60
2022-11-30T11:30:07.961Z,15.37
2022-11-30T11:32:35.464Z,15.10
2022-11-30T11:35:03.083Z,15.13
2022-11-30T11:37:38.342Z,14.50
2022-11-30T11:40:08.307Z,13.90
2022-11-30T11:42:41.903Z,13.17
2022-11-30T11:45:30.957Z,13.57
2022-11-30T11:47:59.759Z,15.10
2022-11-30T11:53:43.905Z,14.67
2022-11-30T11:56:34.032Z,15.30
2022-11-30T11:59:10.119Z,12.70
2022-11-30T12:02:07.746Z,13.40
2022-11-30T12:04:54.237Z,14.50
2022-11-30T12:07:53.828Z,13.60
2022-11-30T12:13:17.663Z,15.03
2022-11-30T12:16:11.449Z,14.53
2022-11-30T12:18:55.316Z,15.13
2022-11-30T12:21:25.509Z,14.37
2022-11-30T12:24:03.060Z,13.07
2022-11-30T12:26:30.468Z,14.30
2022-11-30T12:29:22.695Z,13.70
2022-11-30T12:32:05.611Z,14.77
2022-11-30T12:34:38.380Z,14.87
2022-11-30T12:37:08.384Z,13.60
2022-11-30T12:39:53.511Z,15.30
2022-11-30T12:42:28.382Z,13.57
2022-11-30T12:45:25.470Z,14.07
2022-11-30T12:48:08.112Z,14.53
2022-11-30T12:50:47.066Z,14.57
2022-11-30T12:53:32.453Z,14.50
2022-11-30T12:56:09.773Z,14.83
2022-11-30T12:58:42.846Z,12.97
2022-11-30T13:01:22.055Z,13.20
2022-11-30T13:04:27.464Z,13.40
2022-11-30T13:07:14.771Z,12.80
2022-11-30T13:09:47.840Z,12.90
2022-11-30T13:12:36.382Z,14.70
2022-11-30T13:15:17.368Z,11.77
2022-11-30T13:17:45.887Z,12.57
2022-11-30T13:21:07.232Z,13.80
2022-11-30T13:23:37.628Z,12.47
2022-11-30T13:26:27.483Z,13.20
2022-11-30T13:29:04.135Z,12.27
2022-11-30T13:31:43.499Z,13.43
2022-11-30T13:34:28.746Z,13.43
2022-11-30T13:37:12.068Z,10.70
2022-11-30T13:39:53.718Z,11.33
2022-11-30T13:42:30.096Z,12.10
2022-11-30T13:44:59.092Z,11.20
2022-11-30T13:47:37.926Z,12.50
2022-11-30T13:50:38.666Z,12.10
2022-11-30T13:53:25.999Z,10.33
2022-11-30T13:55:57.108Z,14.33
2022-11-30T13:58:25.704Z,13.87
2022-11-30T14:01:04.689Z,11.13
2022-11-30T14:03:33.147Z,11.43
2022-11-30T14:06:04.687Z,10.50
2022-11-30T14:08:37.727Z,8.97
2022-11-30T14:11:29.825Z,8.80
2022-11-30T14:13:57.050Z,8.93
2022-11-30T14:16:27.691Z,9.23
2022-11-30T14:18:56.872Z,9.90
2022-11-30T14:21:32.136Z,9.97
2022-11-30T14:24:17.881Z,9.70
2022-11-30T14:26:48.489Z,8.80
2022-11-30T14:29:19.733Z,9.33
2022-11-30T14:32:13.559Z,9.33
2022-11-30T14:34:49.313Z,9.30
2022-11-30T14:37:23.715Z,9.90
2022-11-30T14:39:56.613Z,9.23
2022-11-30T14:42:26.635Z,9.70
2022-11-30T14:44:55.726Z,9.37
2022-11-30T14:47:36.188Z,10.30
2022-11-30T14:50:08.076Z,8.47
2022-11-30T14:52:46.391Z,9.17
2022-11-30T14:55:43.963Z,8.77
2022-11-30T14:58:17.407Z,10.23
2022-11-30T15:00:45.807Z,9.57
2022-11-30T15:03:37.323Z,8.60
2022-11-30T15:06:08.428Z,7.93
2022-11-30T15:08:38.703Z,8.70
2022-11-30T15:11:11.493Z,8.40
2022-11-30T15:13:42.573Z,8.40
2022-11-30T15:16:21.741Z,8.00
2022-11-30T15:18:50.366Z,7.83
2022-11-30T15:21:31.697Z,7.50
2022-11-30T15:24:00.984Z,6.50
2022-11-30T15:26:40.194Z,6.80
2022-11-30T15:29:35.742Z,6.60
2022-11-30T15:32:07.861Z,6.10
2022-11-30T15:35:04.300Z,6.37
2022-11-30T15:37:35.524Z,6.93
2022-11-30T15:40:05.595Z,7.70
2022-11-30T15:42:44.351Z,7.93
2022-11-30T15:45:25.359Z,7.40
2022-11-30T15:47:54.338Z,7.80
2022-11-30T15:50:30.567Z,8.27
2022-11-30T15:53:00.217Z,10.30
2022-11-30T15:55:47.895Z,9.67
2022-11-30T15:58:46.140Z,11.20
2022-11-30T16:01:20.674Z,8.80
2022-11-30T16:04:04.032Z,8.50
2022-11-30T16:06:44.894Z,8.97
2022-11-30T16:09:25.445Z,9.10
2022-11-30T16:11:58.132Z,8.60
2022-11-30T16:14:25.408Z,9.83
2022-11-30T16:16:53.894Z,8.77
2022-11-30T16:19:21.855Z,8.43
2022-11-30T16:21:49.992Z,8.10
2022-11-30T16:24:17.500Z,8.30
2022-11-30T16:26:52.471Z,6.60
2022-11-30T16:29:20.471Z,6.53
2022-11-30T16:31:47.868Z,6.87
2022-11-30T16:34:15.189Z,6.20
2022-11-30T16:36:42.455Z,6.23
2022-11-30T16:39:12.693Z,6.07
2022-11-30T16:41:39.947Z,5.93
2022-11-30T16:44:14.015Z,5.27
2022-11-30T16:46:41.466Z,5.80
2022-11-30T16:49:10.100Z,5.50
2022-11-30T16:51:37.566Z,5.57
2022-11-30T16:54:05.253Z,5.60
2022-11-30T16:56:33.308Z,5.23
2022-11-30T16:59:00.600Z,4.93
2022-11-30T17:01:35.969Z,4.33
2022-11-30T17:04:11.780Z,4.77
2022-11-30T17:06:39.068Z,4.40
2022-11-30T17:09:06.536Z,4.67
2022-11-30T17:11:37.243Z,5.90
2022-11-30T17:14:04.708Z,4.60
2022-11-30T17:16:32.565Z,4.07
2022-11-30T17:18:59.849Z,4.47
2022-11-30T17:21:30.380Z,3.30
2022-11-30T17:23:57.785Z,3.77
2022-11-30T17:26:25.435Z,4.07
2022-11-30T17:28:52.899Z,3.53
2022-11-30T17:31:20.487Z,3.67
2022-11-30T17:33:48.664Z,4.73
2022-11-30T17:36:17.093Z,4.53
2022-11-30T17:38:45.296Z,6.63
2022-11-30T17:41:19.549Z,7.50
2022-11-30T17:43:47.979Z,8.03
2022-11-30T17:46:18.090Z,8.37
2022-11-30T17:48:45.983Z,7.63
2022-11-30T17:51:13.819Z,7.17
2022-11-30T17:53:42.580Z,7.27
2022-11-30T17:56:12.105Z,6.13
2022-11-30T17:58:43.839Z,5.37
2022-11-30T18:01:20.248Z,5.40
2022-11-30T18:03:48.088Z,4.17
2022-11-30T18:06:15.932Z,4.13
2022-11-30T18:08:43.404Z,3.90
2022-11-30T18:11:11.471Z,3.67
2022-11-30T18:13:39.776Z,4.30
2022-11-30T18:16:32.002Z,4.07
2022-11-30T18:18:59.944Z,3.37
2022-11-30T18:21:29.703Z,3.90
2022-11-30T18:23:57.991Z,3.70
2022-11-30T18:26:27.122Z,4.17
2022-11-30T18:28:59.470Z,4.77
2022-11-30T18:31:28.241Z,4.40
2022-11-30T18:33:59.764Z,4.50
2022-11-30T18:36:27.531Z,4.93
2022-11-30T18:38:56.071Z,4.47
2022-11-30T18:41:26.178Z,4.20
2022-11-30T18:43:53.890Z,4.63
2022-11-30T18:46:21.739Z,4.57
2022-11-30T18:48:50.640Z,3.97
2022-11-30T18:51:19.337Z,4.17
2022-11-30T18:53:46.961Z,4.30
2022-11-30T18:56:21.207Z,4.20
2022-11-30T18:58:48.565Z,3.70
2022-11-30T19:01:18.344Z,3.90
2022-11-30T19:03:56.852Z,5.10
2022-11-30T19:06:25.352Z,4.43
2022-11-30T19:08:52.522Z,4.40
2022-11-30T19:11:19.888Z,3.73
2022-11-30T19:13:47.142Z,4.30
2022-11-30T19:16:17.087Z,4.03
2022-11-30T19:18:47.417Z,3.40
2022-11-30T19:21:17.776Z,3.90
2022-11-30T19:23:45.912Z,3.70
2022-11-30T19:26:14.432Z,4.03
2022-11-30T19:28:43.073Z,4.50
2022-11-30T19:31:14.834Z,4.80
2022-11-30T19:33:44.289Z,4.50
2022-11-30T19:36:14.903Z,3.80
2022-11-30T19:38:42.245Z,3.70
2022-11-30T19:41:10.962Z,3.80
2022-11-30T19:43:38.468Z,3.47
2022-11-30T19:46:07.325Z,3.93
2022-11-30T19:48:35.325Z,4.20
2022-11-30T19:51:07.013Z,3.97
2022-11-30T19:53:35.419Z,4.50
2022-11-30T19:56:13.936Z,4.50
2022-11-30T19:58:43.884Z,4.30
2022-11-30T20:01:22.808Z,4.43
2022-11-30T20:03:52.169Z,4.70
2022-11-30T20:06:20.821Z,3.70
2022-11-30T20:08:48.063Z,3.57
2022-11-30T20:11:16.189Z,5.23
2022-11-30T20:13:44.779Z,3.63
2022-11-30T20:16:16.958Z,5.30
2022-11-30T20:19:02.706Z,6.50
2022-11-30T20:21:48.456Z,5.80
2022-11-30T20:24:15.919Z,5.80
2022-11-30T20:26:44.587Z,6.10
2022-11-30T20:29:17.151Z,7.20
2022-11-30T20:31:46.908Z,7.97
2022-11-30T20:34:14.477Z,8.13
2022-11-30T20:36:42.016Z,8.17
2022-11-30T20:39:11.544Z,6.90
2022-11-30T20:41:39.020Z,7.23
2022-11-30T20:44:06.316Z,7.10
2022-11-30T20:46:36.866Z,8.90
2022-11-30T20:49:09.219Z,8.60
2022-11-30T20:51:36.511Z,8.50
2022-11-30T20:54:07.035Z,8.97
2022-11-30T20:56:38.732Z,11.23
2022-11-30T20:59:14.202Z,11.33
2022-11-30T21:01:47.631Z,10.50
2022-11-30T21:04:15.038Z,10.47
2022-11-30T21:06:45.507Z,10.80
2022-11-30T21:09:14.769Z,9.90
2022-11-30T21:11:42.081Z,9.90
2022-11-30T21:14:10.566Z,9.70
2022-11-30T21:16:37.894Z,10.07
2022-11-30T21:19:05.318Z,11.00
2022-11-30T21:21:34.334Z,7.87
2022-11-30T21:24:04.340Z,7.40
2022-11-30T21:26:34.167Z,5.50
2022-11-30T21:29:05.420Z,4.93
2022-11-30T21:31:33.296Z,5.77
2022-11-30T21:34:00.679Z,4.87
2022-11-30T21:36:28.150Z,3.40
2022-11-30T21:39:04.509Z,3.57
2022-11-30T21:41:32.961Z,3.90
2022-11-30T21:44:00.174Z,3.67
2022-11-30T21:46:27.547Z,2.10
2022-11-30T21:48:54.903Z,2.50
2022-11-30T21:51:28.135Z,2.30
2022-11-30T21:53:57.945Z,2.20
2022-11-30T21:56:28.284Z,3.43
2022-11-30T21:58:56.189Z,3.80
2022-11-30T22:01:26.604Z,2.90
2022-11-30T22:03:56.919Z,2.43
2022-11-30T22:06:26.118Z,3.47
2022-11-30T22:08:55.694Z,3.30
2022-11-30T22:11:23.283Z,3.77
2022-11-30T22:13:52.347Z,3.90
2022-11-30T22:16:20.963Z,3.17
2022-11-30T22:18:48.546Z,4.20
2022-11-30T22:21:18.492Z,3.50
2022-11-30T22:23:51.456Z,4.30
2022-11-30T22:26:24.911Z,4.40
2022-11-30T22:29:00.763Z,4.50
2022-11-30T22:31:30.673Z,4.47
2022-11-30T22:33:58.366Z,4.43
2022-11-30T22:36:27.911Z,4.80
2022-11-30T22:38:57.157Z,4.20
2022-11-30T22:41:25.183Z,4.83
2022-11-30T22:43:52.736Z,5.47
2022-11-30T22:46:26.385Z,4.77
2022-11-30T22:48:54.075Z,5.30
2022-11-30T22:51:26.394Z,4.83
2022-11-30T22:53:54.554Z,5.27
2022-11-30T22:56:24.590Z,5.40
2022-11-30T22:58:56.353Z,4.67
2022-11-30T23:01:46.260Z,6.10
2022-11-30T23:04:16.582Z,5.73
2022-11-30T23:06:45.098Z,5.50
2022-11-30T23:09:15.891Z,5.63
2022-11-30T23:11:43.667Z,6.30
2022-11-30T23:14:12.206Z,6.00
2022-11-30T23:16:40.122Z,6.30
2022-11-30T23:19:08.132Z,6.77
2022-11-30T23:21:41.929Z,5.20
2022-11-30T23:24:14.605Z,6.30
2022-11-30T23:26:43.317Z,6.50
2022-11-30T23:29:13.304Z,6.97
2022-11-30T23:31:42.312Z,6.97
2022-11-30T23:34:15.650Z,7.10
2022-11-30T23:36:42.940Z,7.27
2022-11-30T23:39:13.281Z,7.07
2022-11-30T23:41:40.878Z,7.70
2022-11-30T23:44:08.510Z,6.83
2022-11-30T23:46:36.291Z,7.17
2022-11-30T23:49:03.709Z,7.90
2022-11-30T23:51:31.034Z,7.80
2022-11-30T23:53:58.197Z,8.00
2022-11-30T23:56:25.534Z,7.87
2022-11-30T23:58:53.030Z,8.97
